createdAt,value
2023-07-24T00:00:43.311Z,39.01
2023-07-24T00:05:46.216Z,39.08
2023-07-24T00:10:49.287Z,39.39
2023-07-24T00:15:53.589Z,39.17
2023-07-24T00:20:56.531Z,39.27
2023-07-24T00:25:59.367Z,39.05
2023-07-24T00:31:05.220Z,39.11
2023-07-24T00:36:08.290Z,38.93
2023-07-24T00:41:12.624Z,38.74
2023-07-24T00:46:17.007Z,39.02
2023-07-24T00:51:20.068Z,38.96
2023-07-24T00:56:23.200Z,38.75
2023-07-24T01:01:28.036Z,39.11
2023-07-24T01:06:31.400Z,39.20
2023-07-24T01:11:39.434Z,38.83
2023-07-24T01:16:44.502Z,38.79
2023-07-24T01:21:59.167Z,39.20
2023-07-24T01:27:03.543Z,39.06
2023-07-24T01:32:07.590Z,38.90
2023-07-24T01:37:11.790Z,38.91
2023-07-24T01:42:16.455Z,39.02
2023-07-24T01:47:19.503Z,39.20
2023-07-24T01:52:22.418Z,39.12
2023-07-24T01:57:26.624Z,38.93
2023-07-24T02:02:29.539Z,39.40
2023-07-24T02:07:32.731Z,39.25
2023-07-24T02:12:36.981Z,39.30
2023-07-24T02:17:40.134Z,40.02
2023-07-24T02:22:43.092Z,39.92
2023-07-24T02:27:47.279Z,39.42
2023-07-24T02:32:50.475Z,41.06
2023-07-24T02:37:53.359Z,43.31
2023-07-24T02:42:57.555Z,44.83
2023-07-24T02:48:01.171Z,45.68
2023-07-24T02:53:05.169Z,44.62
2023-07-24T02:58:09.430Z,45.44
2023-07-24T03:03:12.558Z,45.33
2023-07-24T03:08:15.507Z,45.65
2023-07-24T03:13:19.848Z,46.03
2023-07-24T03:18:22.796Z,46.43
2023-07-24T03:23:25.712Z,46.38
2023-07-24T03:28:29.929Z,46.21
2023-07-24T03:33:32.796Z,46.34
2023-07-24T03:38:35.965Z,46.29
2023-07-24T03:43:40.942Z,46.47
2023-07-24T03:48:43.851Z,46.28
2023-07-24T03:53:47.428Z,46.69
2023-07-24T03:58:51.819Z,46.99
2023-07-24T04:03:54.911Z,47.06
2023-07-24T04:08:57.821Z,47.30
2023-07-24T04:14:02.023Z,47.41
2023-07-24T04:19:05.308Z,47.36
2023-07-24T04:24:08.346Z,47.54
2023-07-24T04:29:13.634Z,47.56
2023-07-24T04:34:17.871Z,47.75
2023-07-24T04:39:20.762Z,47.85
2023-07-24T04:44:24.982Z,47.95
2023-07-24T04:49:29.807Z,48.28
2023-07-24T04:54:32.676Z,48.29
2023-07-24T04:59:36.845Z,48.38
2023-07-24T05:04:39.740Z,48.45
2023-07-24T05:09:42.613Z,48.19
2023-07-24T05:14:46.878Z,48.12
2023-07-24T05:19:49.817Z,47.97
2023-07-24T05:24:52.714Z,48.00
2023-07-24T05:29:56.964Z,47.92
2023-07-24T05:34:59.829Z,47.92
2023-07-24T05:40:02.740Z,48.15
2023-07-24T05:45:08.509Z,48.30
2023-07-24T05:50:14.401Z,48.81
2023-07-24T05:55:17.769Z,49.23
2023-07-24T06:00:22.118Z,48.70
2023-07-24T06:05:25.326Z,48.63
2023-07-24T06:10:28.227Z,48.57
2023-07-24T06:15:32.814Z,48.74
2023-07-24T06:20:35.643Z,48.69
2023-07-24T06:25:38.567Z,48.75
2023-07-24T06:30:42.911Z,48.83
2023-07-24T06:35:47.379Z,48.75
2023-07-24T06:40:50.330Z,48.84
2023-07-24T06:45:54.580Z,49.25
2023-07-24T06:50:58.863Z,49.29
2023-07-24T06:56:01.896Z,49.62
2023-07-24T07:01:08.892Z,49.31
2023-07-24T07:06:28.227Z,49.99
2023-07-24T07:11:32.576Z,49.70
2023-07-24T07:16:36.975Z,49.54
2023-07-24T07:21:39.908Z,49.34
2023-07-24T07:26:42.858Z,49.03
2023-07-24T07:31:47.082Z,48.89
2023-07-24T07:36:50.002Z,56.40
2023-07-24T07:42:01.198Z,61.08
2023-07-24T07:47:16.322Z,61.30
2023-07-24T07:52:19.306Z,62.69
2023-07-24T07:57:22.164Z,64.14
2023-07-24T08:02:26.931Z,64.69
2023-07-24T08:07:29.814Z,64.69
2023-07-24T08:12:32.678Z,64.63
2023-07-24T08:17:36.903Z,64.45
2023-07-24T08:22:39.901Z,64.41
2023-07-24T08:28:00.687Z,64.85
2023-07-24T08:33:06.921Z,64.83
2023-07-24T08:38:09.846Z,63.63
2023-07-24T08:43:14.911Z,58.78
2023-07-24T08:48:19.798Z,58.40
2023-07-24T08:53:23.265Z,56.98
2023-07-24T08:58:26.154Z,55.83
2023-07-24T09:03:30.842Z,54.71
2023-07-24T09:08:34.725Z,55.11
2023-07-24T09:13:38.842Z,54.64
2023-07-24T09:18:44.144Z,54.11
2023-07-24T09:23:47.197Z,53.93
2023-07-24T09:28:54.477Z,53.30
2023-07-24T09:33:59.408Z,53.48
2023-07-24T09:39:02.885Z,54.36
2023-07-24T09:44:05.932Z,53.67
2023-07-24T09:49:10.261Z,53.69
2023-07-24T09:54:17.984Z,53.57
2023-07-24T09:59:21.866Z,53.11
2023-07-24T10:04:26.538Z,53.06
2023-07-24T10:09:30.769Z,52.76
2023-07-24T10:14:35.013Z,52.43
2023-07-24T10:19:41.429Z,52.30
2023-07-24T10:24:44.372Z,52.73
2023-07-24T10:29:49.964Z,52.37
2023-07-24T10:35:01.734Z,51.77
2023-07-24T10:40:05.524Z,51.88
2023-07-24T10:45:09.617Z,51.90
2023-07-24T10:50:13.894Z,51.03
2023-07-24T10:55:16.806Z,50.92
2023-07-24T11:00:19.679Z,50.96
2023-07-24T11:05:24.241Z,50.30
2023-07-24T11:10:27.331Z,50.36
2023-07-24T11:15:30.216Z,49.57
2023-07-24T11:20:34.460Z,49.35
2023-07-24T11:25:40.902Z,48.95
2023-07-24T11:30:44.652Z,48.72
2023-07-24T11:35:48.995Z,48.99
2023-07-24T11:40:51.972Z,49.14
2023-07-24T11:45:56.361Z,49.22
2023-07-24T11:51:00.576Z,49.39
2023-07-24T11:56:03.544Z,49.77
2023-07-24T12:01:06.456Z,49.55
2023-07-24T12:06:17.851Z,50.63
2023-07-24T12:11:20.822Z,51.46
2023-07-24T12:16:23.850Z,50.97
2023-07-24T12:21:28.265Z,51.06
2023-07-24T12:26:31.449Z,51.40
2023-07-24T12:31:34.707Z,50.95
2023-07-24T12:36:39.350Z,50.46
2023-07-24T12:41:42.249Z,50.21
2023-07-24T12:46:45.663Z,50.03
2023-07-24T12:51:49.903Z,50.09
2023-07-24T12:56:53.005Z,49.99
2023-07-24T13:01:55.935Z,48.85
2023-07-24T13:07:01.399Z,47.85
2023-07-24T13:12:04.486Z,47.23
2023-07-24T13:17:08.501Z,47.29
2023-07-24T13:22:16.616Z,47.74
2023-07-24T13:27:19.777Z,47.84
2023-07-24T13:32:22.699Z,47.95
2023-07-24T13:37:26.969Z,47.47
2023-07-24T13:42:31.448Z,47.33
2023-07-24T13:47:35.213Z,48.47
2023-07-24T13:52:39.453Z,47.02
2023-07-24T13:57:42.348Z,46.62
2023-07-24T14:02:45.307Z,46.43
2023-07-24T14:07:49.630Z,47.05
2023-07-24T14:12:52.656Z,47.62
2023-07-24T14:17:55.586Z,47.10
2023-07-24T14:22:59.925Z,47.29
2023-07-24T14:28:02.828Z,46.73
2023-07-24T14:33:05.799Z,46.95
2023-07-24T14:38:10.102Z,47.49
2023-07-24T14:43:12.994Z,47.47
2023-07-24T14:48:17.782Z,48.28
2023-07-24T14:53:21.986Z,48.22
2023-07-24T14:58:24.824Z,47.92
2023-07-24T15:03:27.819Z,49.58
2023-07-24T15:08:32.190Z,50.03
2023-07-24T15:13:35.094Z,50.18
2023-07-24T15:18:38.013Z,49.03
2023-07-24T15:23:42.314Z,47.67
2023-07-24T15:28:47.169Z,47.04
2023-07-24T15:33:50.057Z,46.25
2023-07-24T15:38:54.301Z,45.42
2023-07-24T15:43:57.160Z,45.27
2023-07-24T15:49:00.586Z,45.28
2023-07-24T15:54:08.192Z,44.77
2023-07-24T15:59:11.150Z,44.12
2023-07-24T16:04:14.037Z,44.80
2023-07-24T16:09:18.547Z,43.29
2023-07-24T16:14:21.759Z,43.45
2023-07-24T16:19:24.698Z,44.30
2023-07-24T16:24:28.974Z,44.91
2023-07-24T16:29:33.416Z,45.39
2023-07-24T16:34:37.597Z,45.99
2023-07-24T16:39:41.809Z,46.01
2023-07-24T16:44:44.782Z,45.91
2023-07-24T16:49:47.764Z,45.60
2023-07-24T16:54:52.625Z,45.74
2023-07-24T16:59:57.714Z,45.51
2023-07-24T17:05:00.887Z,45.35
2023-07-24T17:10:06.500Z,44.97
2023-07-24T17:15:10.095Z,44.89
2023-07-24T17:20:13.170Z,45.04
2023-07-24T17:25:18.682Z,45.33
2023-07-24T17:30:23.932Z,45.05
2023-07-24T17:35:26.952Z,44.77
2023-07-24T17:40:31.328Z,45.18
2023-07-24T17:45:35.363Z,45.66
2023-07-24T17:50:38.284Z,45.34
2023-07-24T17:55:42.638Z,45.80
2023-07-24T18:00:47.142Z,46.03
2023-07-24T18:05:51.594Z,46.01
2023-07-24T18:10:55.753Z,45.98
2023-07-24T18:15:58.730Z,45.83
2023-07-24T18:21:08.306Z,46.31
2023-07-24T18:26:13.318Z,46.31
2023-07-24T18:31:16.787Z,46.42
2023-07-24T18:36:19.849Z,46.54
2023-07-24T18:41:24.496Z,46.48
2023-07-24T18:46:27.410Z,46.49
2023-07-24T18:51:30.587Z,46.81
2023-07-24T18:56:35.043Z,46.97
2023-07-24T19:01:38.005Z,47.12
2023-07-24T19:06:40.938Z,47.25
2023-07-24T19:11:45.165Z,47.26
2023-07-24T19:16:48.080Z,47.65
2023-07-24T19:21:50.967Z,47.47
2023-07-24T19:26:55.206Z,47.70
2023-07-24T19:31:58.122Z,47.59
2023-07-24T19:37:01.822Z,47.67
2023-07-24T19:42:07.895Z,47.95
2023-07-24T19:47:10.774Z,50.51
2023-07-24T19:52:13.603Z,50.98
2023-07-24T19:57:17.802Z,51.08
2023-07-24T20:02:20.812Z,50.92
2023-07-24T20:07:23.829Z,51.02
2023-07-24T20:12:28.031Z,51.05
2023-07-24T20:17:30.945Z,50.74
2023-07-24T20:22:33.869Z,50.92
2023-07-24T20:27:38.167Z,50.86
2023-07-24T20:32:41.168Z,50.72
2023-07-24T20:37:46.213Z,50.50
2023-07-24T20:42:50.610Z,50.29
2023-07-24T20:47:54.205Z,50.23
2023-07-24T20:52:57.233Z,50.42
2023-07-24T20:58:01.486Z,50.05
2023-07-24T21:03:04.475Z,50.26
2023-07-24T21:08:07.948Z,50.27
2023-07-24T21:13:12.175Z,50.40
2023-07-24T21:18:15.039Z,50.09
2023-07-24T21:23:17.937Z,50.30
2023-07-24T21:28:22.271Z,50.25
2023-07-24T21:33:25.224Z,50.21
2023-07-24T21:38:28.232Z,50.15
2023-07-24T21:43:32.451Z,50.09
2023-07-24T21:48:35.311Z,50.10
2023-07-24T21:53:38.478Z,50.27
2023-07-24T21:58:42.673Z,50.07
2023-07-24T22:03:45.531Z,50.38
2023-07-24T22:08:49.119Z,50.37
2023-07-24T22:13:53.334Z,50.61
2023-07-24T22:18:56.211Z,50.37
2023-07-24T22:23:59.057Z,50.31
2023-07-24T22:29:03.242Z,50.40
2023-07-24T22:34:06.095Z,50.19
2023-07-24T22:39:11.170Z,50.33
2023-07-24T22:44:15.871Z,50.63
2023-07-24T22:49:18.935Z,50.47
2023-07-24T22:54:21.986Z,50.38
2023-07-24T22:59:27.194Z,50.62
2023-07-24T23:04:30.129Z,50.58
2023-07-24T23:09:35.163Z,50.69
2023-07-24T23:14:39.388Z,50.60
2023-07-24T23:19:42.251Z,50.66
2023-07-24T23:24:45.256Z,50.59
2023-07-24T23:29:49.526Z,50.73
2023-07-24T23:34:53.199Z,50.48
2023-07-24T23:39:56.081Z,50.51
2023-07-24T23:45:00.342Z,48.80
2023-07-24T23:50:03.221Z,47.57
2023-07-24T23:55:07.191Z,47.14
